Currently 39°F in Lake Elsinore, California, USA
39°F
46°F / 39°F
calm
0.00"
Tuesday, December 1, 2020 6:28 AM PST

Lake Elsinore, California Weather Summary
Last 36 Hours

Temperature Winds Hourly Humidity Dewpoint
Time Report Norm Report Norm Max Gusts Precip. Rpt. Norm Rpt. Norm Pressure
1Tue 06:28 AM  38.9°F  45°F  calm  1 mph  none  0.00"  61%  79%  26°F  39°F  N/A
3Tue 06:22 AM  38.8°F  45°F  calm  1 mph  none  ----  60%  79%  25°F  39°F  N/A
Tue 06:00 AM  39.0°F  45°F  calm  1 mph  none  0.00"  58%  79%  25°F  39°F  N/A
Tue 05:00 AM  39.9°F  46°F  calm  1 mph  none  0.00"  56%  78%  25°F  39°F  N/A
Tue 04:00 AM  41.0°F  46°F  calm  1 mph  3 mph  0.00"  52%  77%  24°F  39°F  N/A
Tue 03:00 AM  42.0°F  47°F  calm  1 mph  none  0.00"  48%  76%  23°F  39°F  N/A
Tue 02:00 AM  43.0°F  47°F  calm  1 mph  none  0.00"  46%  75%  23°F  39°F  N/A
Tue 01:00 AM  44.4°F  48°F  calm  calm  3 mph  0.00"  44%  74%  23°F  40°F  N/A
2Tue 12:00 AM  46.1°F  48°F  calm  calm  none  0.00"  42%  73%  23°F  40°F  N/A
Mon 11:00 PM  48.2°F  49°F  calm  calm  4 mph  0.00"  40%  71%  24°F  40°F  N/A
Mon 10:00 PM  50.3°F  50°F  calm  calm  3 mph  0.00"  35%  69%  23°F  40°F  N/A
Mon 09:00 PM  52.5°F  51°F  calm  calm  none  0.00"  32%  67%  22°F  40°F  N/A
Mon 08:00 PM  54.7°F  53°F  calm  1 mph  1 mph  0.00"  28%  64%  21°F  41°F  N/A
Mon 07:00 PM  57.6°F  55°F  calm  1 mph  3 mph  0.00"  25%  60%  21°F  41°F  N/A
Mon 06:00 PM  62.5°F  57°F  calm  1 mph  2 mph  0.00"  18%  57%  17°F  41°F  N/A
Mon 05:00 PM  69.0°F  61°F  calm  1 mph  3 mph  0.00"  11%  51%  11°F  42°F  N/A
Mon 04:00 PM  77.1°F  65°F  calm  2 mph  8 mph  0.00"  6%  44%  3°F  42°F  N/A
Mon 03:00 PM  83.9°F  69°F  6 mph NW  3 mph  8 mph  0.00"  4%  40%  -5°F  42°F  N/A
Mon 02:00 PM  83.2°F  69°F  1 mph S  2 mph  5 mph  0.00"  4%  38%  -2°F  42°F  N/A
Mon 01:00 PM  81.7°F  69°F  2 mph S  2 mph  5 mph  0.00"  5%  39%  1°F  42°F  N/A
Mon 12:00 PM  80.4°F  67°F  2 mph E  2 mph  4 mph  0.00"  8%  42%  13°F  42°F  N/A
Mon 11:00 AM  81.1°F  65°F  calm  2 mph  4 mph  0.00"  6%  46%  5°F  43°F  N/A
Mon 10:00 AM  68.3°F  62°F  calm  1 mph  4 mph  0.00"  22%  54%  26°F  44°F  N/A
Mon 09:00 AM  66.2°F  57°F  calm  1 mph  2 mph  0.00"  29%  64%  31°F  45°F  N/A
Mon 08:00 AM  53.3°F  51°F  calm  1 mph  3 mph  0.00"  43%  75%  30°F  43°F  N/A
Mon 07:00 AM  42.2°F  45°F  1 mph W  1 mph  none  0.00"  61%  79%  29°F  39°F  N/A
Mon 06:00 AM  42.9°F  45°F  calm  1 mph  none  0.00"  57%  79%  28°F  39°F  N/A
Mon 05:00 AM  44.0°F  46°F  calm  1 mph  none  0.00"  49%  79%  25°F  39°F  N/A
Mon 04:00 AM  46.0°F  46°F  calm  1 mph  none  0.00"  45%  78%  25°F  39°F  N/A
Mon 03:00 AM  47.7°F  47°F  calm  1 mph  none  0.00"  42%  76%  25°F  39°F  N/A
Mon 02:00 AM  48.1°F  47°F  calm  calm  none  0.00"  42%  76%  25°F  40°F  N/A
Mon 01:00 AM  48.4°F  48°F  calm  calm  none  0.00"  40%  74%  24°F  40°F  N/A
Mon 12:00 AM  49.1°F  49°F  calm  calm  3 mph  0.00"  37%  73%  23°F  40°F  N/A
Sun 11:00 PM  50.8°F  49°F  calm  calm  1 mph  0.00"  34%  71%  22°F  40°F  N/A
Sun 10:00 PM  51.6°F  50°F  calm  calm  1 mph  0.00"  31%  69%  21°F  40°F  N/A
Sun 09:00 PM  53.7°F  52°F  calm  calm  none  0.00"  28%  67%  20°F  41°F  N/A
Sun 08:00 PM  56.6°F  53°F  calm  1 mph  none  0.00"  24%  63%  19°F  41°F  N/A
Sun 07:00 PM  61.2°F  55°F  calm  1 mph  6 mph  0.00"  17%  60%  15°F  41°F  N/A

  1. Current weather data. No green row appears if the current weather data is also the high or low for the current day.
  2. High temperature for the current day.
  3. Low temperature for the current day.

The Lake Elsinore, California weather pages are a service of WeatherCurrents. Lake Elsinore is located south of Corona and north of the Temecula Valley, in southwestern Riverside County, California.
Copyright ©2020  WeatherCurrents. All rights reserved. - Submit questions and comments - Privacy Policy

This page automatically refreshes every 10 minutes.